sensor_id;sensor_type;location;lat;lon;timestamp;temperature;humidity
29849;DHT22;16728;50.832;5.590;2023-07-28T00:02:54;18.10;99.90
29849;DHT22;16728;50.832;5.590;2023-07-28T00:05:56;18.20;99.90
29849;DHT22;16728;50.832;5.590;2023-07-28T00:08:58;18.20;99.90
29849;DHT22;16728;50.832;5.590;2023-07-28T00:12:01;18.10;99.90
29849;DHT22;16728;50.832;5.590;2023-07-28T00:15:03;18.10;99.90
29849;DHT22;16728;50.832;5.590;2023-07-28T00:18:05;18.20;99.90
29849;DHT22;16728;50.832;5.590;2023-07-28T00:21:07;18.20;99.90
29849;DHT22;16728;50.832;5.590;2023-07-28T00:24:09;18.20;99.90
29849;DHT22;16728;50.832;5.590;2023-07-28T00:27:11;18.20;99.90
29849;DHT22;16728;50.832;5.590;2023-07-28T00:30:16;18.20;99.90
29849;DHT22;16728;50.832;5.590;2023-07-28T00:33:18;18.20;99.90
29849;DHT22;16728;50.832;5.590;2023-07-28T00:36:20;18.20;99.90
29849;DHT22;16728;50.832;5.590;2023-07-28T00:39:22;18.20;99.90
29849;DHT22;16728;50.832;5.590;2023-07-28T00:42:24;18.20;99.90
29849;DHT22;16728;50.832;5.590;2023-07-28T00:45:26;18.10;99.90
29849;DHT22;16728;50.832;5.590;2023-07-28T00:48:29;18.20;99.90
29849;DHT22;16728;50.832;5.590;2023-07-28T00:51:31;18.20;99.90
29849;DHT22;16728;50.832;5.590;2023-07-28T00:54:34;18.20;99.90
29849;DHT22;16728;50.832;5.590;2023-07-28T00:57:36;18.20;99.90
29849;DHT22;16728;50.832;5.590;2023-07-28T01:00:40;18.20;99.90
29849;DHT22;16728;50.832;5.590;2023-07-28T01:03:42;18.20;99.90
29849;DHT22;16728;50.832;5.590;2023-07-28T01:07:09;18.20;99.90
29849;DHT22;16728;50.832;5.590;2023-07-28T01:10:18;18.20;99.90
29849;DHT22;16728;50.832;5.590;2023-07-28T01:13:23;18.20;99.90
29849;DHT22;16728;50.832;5.590;2023-07-28T01:16:25;18.20;99.90
29849;DHT22;16728;50.832;5.590;2023-07-28T01:19:27;18.10;99.90
29849;DHT22;16728;50.832;5.590;2023-07-28T01:26:05;18.20;99.90
29849;DHT22;16728;50.832;5.590;2023-07-28T01:29:08;18.20;99.90
29849;DHT22;16728;50.832;5.590;2023-07-28T01:32:11;18.20;99.90
29849;DHT22;16728;50.832;5.590;2023-07-28T01:35:13;18.20;99.90
29849;DHT22;16728;50.832;5.590;2023-07-28T01:38:15;18.20;99.90
29849;DHT22;16728;50.832;5.590;2023-07-28T01:41:17;18.20;99.90
29849;DHT22;16728;50.832;5.590;2023-07-28T01:44:19;18.10;99.90
29849;DHT22;16728;50.832;5.590;2023-07-28T01:47:21;18.20;99.90
29849;DHT22;16728;50.832;5.590;2023-07-28T01:50:23;18.20;99.90
29849;DHT22;16728;50.832;5.590;2023-07-28T01:53:25;18.20;99.90
29849;DHT22;16728;50.832;5.590;2023-07-28T01:56:27;18.20;99.90
29849;DHT22;16728;50.832;5.590;2023-07-28T01:59:29;18.20;99.90
29849;DHT22;16728;50.832;5.590;2023-07-28T02:02:31;18.20;99.90
29849;DHT22;16728;50.832;5.590;2023-07-28T02:05:33;18.20;99.90
29849;DHT22;16728;50.832;5.590;2023-07-28T02:08:35;18.20;99.90
29849;DHT22;16728;50.832;5.590;2023-07-28T02:11:37;18.20;99.90
29849;DHT22;16728;50.832;5.590;2023-07-28T02:14:39;18.20;99.90
29849;DHT22;16728;50.832;5.590;2023-07-28T02:17:41;18.20;99.90
29849;DHT22;16728;50.832;5.590;2023-07-28T02:20:43;18.20;99.90
29849;DHT22;16728;50.832;5.590;2023-07-28T02:23:44;18.10;99.90
29849;DHT22;16728;50.832;5.590;2023-07-28T02:26:46;18.10;99.90
29849;DHT22;16728;50.832;5.590;2023-07-28T02:29:48;18.20;99.90
29849;DHT22;16728;50.832;5.590;2023-07-28T02:32:50;18.10;99.90
29849;DHT22;16728;50.832;5.590;2023-07-28T02:35:52;18.20;99.90
29849;DHT22;16728;50.832;5.590;2023-07-28T02:38:54;18.20;99.90
29849;DHT22;16728;50.832;5.590;2023-07-28T02:41:56;18.20;99.90
29849;DHT22;16728;50.832;5.590;2023-07-28T02:44:58;18.20;99.90
29849;DHT22;16728;50.832;5.590;2023-07-28T02:48:00;18.30;99.90
29849;DHT22;16728;50.832;5.590;2023-07-28T02:51:02;18.20;99.90
29849;DHT22;16728;50.832;5.590;2023-07-28T02:54:04;18.20;99.90
29849;DHT22;16728;50.832;5.590;2023-07-28T02:57:06;18.20;99.90
29849;DHT22;16728;50.832;5.590;2023-07-28T03:00:08;18.20;99.90
29849;DHT22;16728;50.832;5.590;2023-07-28T03:03:12;18.20;99.90
29849;DHT22;16728;50.832;5.590;2023-07-28T03:06:15;18.20;99.90
29849;DHT22;16728;50.832;5.590;2023-07-28T03:09:17;18.20;99.90
29849;DHT22;16728;50.832;5.590;2023-07-28T03:12:19;18.20;99.90
29849;DHT22;16728;50.832;5.590;2023-07-28T03:15:21;18.20;99.90
29849;DHT22;16728;50.832;5.590;2023-07-28T03:18:23;18.20;99.90
29849;DHT22;16728;50.832;5.590;2023-07-28T03:21:29;18.20;99.90
29849;DHT22;16728;50.832;5.590;2023-07-28T03:24:31;18.20;99.90
29849;DHT22;16728;50.832;5.590;2023-07-28T03:27:33;18.20;99.90
29849;DHT22;16728;50.832;5.590;2023-07-28T03:30:35;18.20;99.90
29849;DHT22;16728;50.832;5.590;2023-07-28T03:33:37;18.20;99.90
29849;DHT22;16728;50.832;5.590;2023-07-28T03:36:39;18.20;99.90
29849;DHT22;16728;50.832;5.590;2023-07-28T03:39:41;18.20;99.90
29849;DHT22;16728;50.832;5.590;2023-07-28T03:42:43;18.20;99.90
29849;DHT22;16728;50.832;5.590;2023-07-28T03:45:45;18.20;99.90
29849;DHT22;16728;50.832;5.590;2023-07-28T03:48:47;18.20;99.90
29849;DHT22;16728;50.832;5.590;2023-07-28T03:51:50;18.20;99.90
29849;DHT22;16728;50.832;5.590;2023-07-28T03:54:51;18.20;99.90
29849;DHT22;16728;50.832;5.590;2023-07-28T03:57:53;18.30;99.90
29849;DHT22;16728;50.832;5.590;2023-07-28T04:00:55;18.20;99.90
29849;DHT22;16728;50.832;5.590;2023-07-28T04:03:58;18.20;99.90
29849;DHT22;16728;50.832;5.590;2023-07-28T04:07:02;18.20;99.90
29849;DHT22;16728;50.832;5.590;2023-07-28T04:10:04;18.20;99.90
29849;DHT22;16728;50.832;5.590;2023-07-28T04:13:06;18.20;99.90
29849;DHT22;16728;50.832;5.590;2023-07-28T04:16:08;18.20;99.90
29849;DHT22;16728;50.832;5.590;2023-07-28T04:19:10;18.30;99.90
29849;DHT22;16728;50.832;5.590;2023-07-28T04:22:12;18.20;99.90
29849;DHT22;16728;50.832;5.590;2023-07-28T04:25:15;18.30;99.90
29849;DHT22;16728;50.832;5.590;2023-07-28T04:28:17;18.20;99.90
29849;DHT22;16728;50.832;5.590;2023-07-28T04:31:18;18.20;99.90
29849;DHT22;16728;50.832;5.590;2023-07-28T04:34:20;18.20;99.90
29849;DHT22;16728;50.832;5.590;2023-07-28T04:37:22;18.30;99.90
29849;DHT22;16728;50.832;5.590;2023-07-28T04:40:24;18.30;99.90
29849;DHT22;16728;50.832;5.590;2023-07-28T04:43:26;18.30;99.90
29849;DHT22;16728;50.832;5.590;2023-07-28T04:46:28;18.30;99.90
29849;DHT22;16728;50.832;5.590;2023-07-28T04:49:30;18.30;99.90
29849;DHT22;16728;50.832;5.590;2023-07-28T04:52:32;18.30;99.90
29849;DHT22;16728;50.832;5.590;2023-07-28T04:55:34;18.30;99.90
29849;DHT22;16728;50.832;5.590;2023-07-28T04:58:36;18.30;99.90
29849;DHT22;16728;50.832;5.590;2023-07-28T05:01:38;18.40;99.90
29849;DHT22;16728;50.832;5.590;2023-07-28T05:04:40;18.30;99.90
29849;DHT22;16728;50.832;5.590;2023-07-28T05:07:42;18.40;99.90
29849;DHT22;16728;50.832;5.590;2023-07-28T05:10:44;18.40;99.90
29849;DHT22;16728;50.832;5.590;2023-07-28T05:13:46;18.40;99.90
29849;DHT22;16728;50.832;5.590;2023-07-28T05:16:48;18.40;99.90
29849;DHT22;16728;50.832;5.590;2023-07-28T05:19:50;18.40;99.90
29849;DHT22;16728;50.832;5.590;2023-07-28T05:22:53;18.40;99.90
29849;DHT22;16728;50.832;5.590;2023-07-28T05:25:55;18.40;99.90
29849;DHT22;16728;50.832;5.590;2023-07-28T05:28:57;18.50;99.90
29849;DHT22;16728;50.832;5.590;2023-07-28T05:31:59;18.50;99.90
29849;DHT22;16728;50.832;5.590;2023-07-28T05:35:01;18.50;99.90
29849;DHT22;16728;50.832;5.590;2023-07-28T05:38:03;18.50;99.90
29849;DHT22;16728;50.832;5.590;2023-07-28T05:41:05;18.50;99.90
29849;DHT22;16728;50.832;5.590;2023-07-28T05:44:08;18.40;99.90
29849;DHT22;16728;50.832;5.590;2023-07-28T05:47:10;18.50;99.90
29849;DHT22;16728;50.832;5.590;2023-07-28T05:50:12;18.40;99.90
29849;DHT22;16728;50.832;5.590;2023-07-28T05:53:14;18.50;99.90
29849;DHT22;16728;50.832;5.590;2023-07-28T05:56:16;18.50;99.90
29849;DHT22;16728;50.832;5.590;2023-07-28T05:59:18;18.50;99.90
29849;DHT22;16728;50.832;5.590;2023-07-28T06:02:20;18.50;99.90
29849;DHT22;16728;50.832;5.590;2023-07-28T06:05:22;18.50;99.90
29849;DHT22;16728;50.832;5.590;2023-07-28T06:08:24;18.50;99.90
29849;DHT22;16728;50.832;5.590;2023-07-28T06:11:25;18.60;99.90
29849;DHT22;16728;50.832;5.590;2023-07-28T06:14:28;18.60;99.90
29849;DHT22;16728;50.832;5.590;2023-07-28T06:17:30;18.60;99.90
29849;DHT22;16728;50.832;5.590;2023-07-28T06:20:35;18.60;99.90
29849;DHT22;16728;50.832;5.590;2023-07-28T06:23:37;18.60;99.90
29849;DHT22;16728;50.832;5.590;2023-07-28T06:26:39;18.60;99.90
29849;DHT22;16728;50.832;5.590;2023-07-28T06:29:41;18.60;99.90
29849;DHT22;16728;50.832;5.590;2023-07-28T06:32:43;18.60;99.90
29849;DHT22;16728;50.832;5.590;2023-07-28T06:35:45;18.60;99.90
29849;DHT22;16728;50.832;5.590;2023-07-28T06:38:47;18.60;99.90
29849;DHT22;16728;50.832;5.590;2023-07-28T06:41:50;18.70;99.90
29849;DHT22;16728;50.832;5.590;2023-07-28T06:44:52;18.70;99.90
29849;DHT22;16728;50.832;5.590;2023-07-28T06:47:54;18.80;99.90
29849;DHT22;16728;50.832;5.590;2023-07-28T06:50:56;18.80;99.90
29849;DHT22;16728;50.832;5.590;2023-07-28T06:53:58;18.80;99.90
29849;DHT22;16728;50.832;5.590;2023-07-28T06:57:00;18.80;99.90
29849;DHT22;16728;50.832;5.590;2023-07-28T07:00:03;18.80;99.90
29849;DHT22;16728;50.832;5.590;2023-07-28T07:03:05;18.90;99.90
29849;DHT22;16728;50.832;5.590;2023-07-28T07:06:07;19.00;99.90
29849;DHT22;16728;50.832;5.590;2023-07-28T07:09:09;19.00;99.90
29849;DHT22;16728;50.832;5.590;2023-07-28T07:12:11;19.00;99.90
29849;DHT22;16728;50.832;5.590;2023-07-28T07:15:13;19.10;99.90
29849;DHT22;16728;50.832;5.590;2023-07-28T07:18:15;19.10;99.90
29849;DHT22;16728;50.832;5.590;2023-07-28T07:21:18;19.10;99.90
29849;DHT22;16728;50.832;5.590;2023-07-28T07:24:20;19.10;99.90
29849;DHT22;16728;50.832;5.590;2023-07-28T07:27:24;19.20;99.90
29849;DHT22;16728;50.832;5.590;2023-07-28T07:30:26;19.20;99.90
29849;DHT22;16728;50.832;5.590;2023-07-28T07:33:28;19.30;99.90
29849;DHT22;16728;50.832;5.590;2023-07-28T07:36:30;19.40;99.90
29849;DHT22;16728;50.832;5.590;2023-07-28T07:39:32;19.40;99.90
29849;DHT22;16728;50.832;5.590;2023-07-28T07:42:49;19.50;99.90
29849;DHT22;16728;50.832;5.590;2023-07-28T07:45:51;19.60;99.90
29849;DHT22;16728;50.832;5.590;2023-07-28T07:48:55;19.60;99.90
29849;DHT22;16728;50.832;5.590;2023-07-28T07:51:57;19.60;99.90
29849;DHT22;16728;50.832;5.590;2023-07-28T07:54:59;19.70;99.90
29849;DHT22;16728;50.832;5.590;2023-07-28T07:58:01;19.70;99.90
29849;DHT22;16728;50.832;5.590;2023-07-28T08:01:03;19.80;99.90
29849;DHT22;16728;50.832;5.590;2023-07-28T08:04:06;19.80;99.90
29849;DHT22;16728;50.832;5.590;2023-07-28T08:07:08;19.90;99.90
29849;DHT22;16728;50.832;5.590;2023-07-28T08:10:10;19.90;99.90
29849;DHT22;16728;50.832;5.590;2023-07-28T08:13:12;19.90;99.90
29849;DHT22;16728;50.832;5.590;2023-07-28T08:16:14;20.00;99.90
29849;DHT22;16728;50.832;5.590;2023-07-28T08:19:16;20.10;99.90
29849;DHT22;16728;50.832;5.590;2023-07-28T08:22:18;20.20;99.90
29849;DHT22;16728;50.832;5.590;2023-07-28T08:25:20;20.30;99.90
29849;DHT22;16728;50.832;5.590;2023-07-28T08:28:24;20.30;99.90
29849;DHT22;16728;50.832;5.590;2023-07-28T08:31:26;20.30;99.90
29849;DHT22;16728;50.832;5.590;2023-07-28T08:34:28;20.30;99.90
29849;DHT22;16728;50.832;5.590;2023-07-28T08:37:30;20.30;99.90
29849;DHT22;16728;50.832;5.590;2023-07-28T08:40:33;20.40;99.90
29849;DHT22;16728;50.832;5.590;2023-07-28T08:43:35;20.40;99.90
29849;DHT22;16728;50.832;5.590;2023-07-28T08:46:38;20.40;99.90
29849;DHT22;16728;50.832;5.590;2023-07-28T08:49:40;20.40;99.90
29849;DHT22;16728;50.832;5.590;2023-07-28T08:52:42;20.50;99.90
29849;DHT22;16728;50.832;5.590;2023-07-28T08:55:44;20.50;99.90
29849;DHT22;16728;50.832;5.590;2023-07-28T08:58:46;20.60;99.90
29849;DHT22;16728;50.832;5.590;2023-07-28T09:01:50;20.70;99.90
29849;DHT22;16728;50.832;5.590;2023-07-28T09:04:52;20.70;99.90
29849;DHT22;16728;50.832;5.590;2023-07-28T09:07:54;20.70;99.90
29849;DHT22;16728;50.832;5.590;2023-07-28T09:11:03;20.60;99.90
29849;DHT22;16728;50.832;5.590;2023-07-28T09:14:11;20.70;99.90
29849;DHT22;16728;50.832;5.590;2023-07-28T09:17:14;20.80;99.90
29849;DHT22;16728;50.832;5.590;2023-07-28T09:20:16;20.90;99.90
29849;DHT22;16728;50.832;5.590;2023-07-28T09:23:28;20.90;99.90
29849;DHT22;16728;50.832;5.590;2023-07-28T09:27:00;21.00;99.90
29849;DHT22;16728;50.832;5.590;2023-07-28T09:30:02;21.00;99.90
29849;DHT22;16728;50.832;5.590;2023-07-28T09:33:05;21.10;99.90
29849;DHT22;16728;50.832;5.590;2023-07-28T09:36:12;21.10;99.90
29849;DHT22;16728;50.832;5.590;2023-07-28T09:39:14;21.10;99.90
29849;DHT22;16728;50.832;5.590;2023-07-28T09:42:16;21.10;99.90
29849;DHT22;16728;50.832;5.590;2023-07-28T09:45:18;21.10;99.90
29849;DHT22;16728;50.832;5.590;2023-07-28T09:48:39;21.10;99.90
29849;DHT22;16728;50.832;5.590;2023-07-28T09:51:45;21.10;99.90
29849;DHT22;16728;50.832;5.590;2023-07-28T09:54:52;21.10;99.90
29849;DHT22;16728;50.832;5.590;2023-07-28T09:57:58;21.20;99.90
29849;DHT22;16728;50.832;5.590;2023-07-28T10:01:02;21.20;99.90
29849;DHT22;16728;50.832;5.590;2023-07-28T10:04:07;21.20;99.90
29849;DHT22;16728;50.832;5.590;2023-07-28T10:07:09;21.20;99.90
29849;DHT22;16728;50.832;5.590;2023-07-28T10:10:13;21.10;99.90
29849;DHT22;16728;50.832;5.590;2023-07-28T10:13:21;21.10;99.90
29849;DHT22;16728;50.832;5.590;2023-07-28T10:16:30;21.10;99.90
29849;DHT22;16728;50.832;5.590;2023-07-28T10:19:37;21.00;99.90
29849;DHT22;16728;50.832;5.590;2023-07-28T10:22:44;21.00;99.90
29849;DHT22;16728;50.832;5.590;2023-07-28T10:25:58;20.90;99.90
29849;DHT22;16728;50.832;5.590;2023-07-28T10:29:11;21.00;99.90
29849;DHT22;16728;50.832;5.590;2023-07-28T10:32:25;21.00;99.90
29849;DHT22;16728;50.832;5.590;2023-07-28T10:35:30;21.10;99.90
29849;DHT22;16728;50.832;5.590;2023-07-28T10:38:37;21.20;99.90
29849;DHT22;16728;50.832;5.590;2023-07-28T10:41:59;21.30;99.90
29849;DHT22;16728;50.832;5.590;2023-07-28T10:45:01;21.30;99.90
29849;DHT22;16728;50.832;5.590;2023-07-28T10:48:07;21.20;99.90
29849;DHT22;16728;50.832;5.590;2023-07-28T10:51:23;21.20;99.90
29849;DHT22;16728;50.832;5.590;2023-07-28T10:54:27;21.20;99.90
29849;DHT22;16728;50.832;5.590;2023-07-28T10:57:29;21.20;99.90
29849;DHT22;16728;50.832;5.590;2023-07-28T11:00:31;21.20;99.90
29849;DHT22;16728;50.832;5.590;2023-07-28T11:03:33;21.20;99.90
29849;DHT22;16728;50.832;5.590;2023-07-28T11:06:49;21.20;99.90
29849;DHT22;16728;50.832;5.590;2023-07-28T11:09:51;21.20;99.90
29849;DHT22;16728;50.832;5.590;2023-07-28T11:12:53;21.20;99.90
29849;DHT22;16728;50.832;5.590;2023-07-28T11:15:56;21.20;99.90
29849;DHT22;16728;50.832;5.590;2023-07-28T11:19:12;21.20;99.90
29849;DHT22;16728;50.832;5.590;2023-07-28T11:22:19;21.20;99.90
29849;DHT22;16728;50.832;5.590;2023-07-28T11:25:22;21.30;99.90
29849;DHT22;16728;50.832;5.590;2023-07-28T11:28:24;21.30;99.90
29849;DHT22;16728;50.832;5.590;2023-07-28T11:31:27;21.30;99.90
29849;DHT22;16728;50.832;5.590;2023-07-28T11:34:36;21.30;99.90
29849;DHT22;16728;50.832;5.590;2023-07-28T11:37:39;21.40;99.90
29849;DHT22;16728;50.832;5.590;2023-07-28T11:40:44;21.40;99.90
29849;DHT22;16728;50.832;5.590;2023-07-28T11:43:51;21.50;99.90
29849;DHT22;16728;50.832;5.590;2023-07-28T11:46:53;21.60;99.90
29849;DHT22;16728;50.832;5.590;2023-07-28T11:49:57;21.60;99.90
29849;DHT22;16728;50.832;5.590;2023-07-28T11:53:00;21.70;99.90
29849;DHT22;16728;50.832;5.590;2023-07-28T11:56:02;21.70;99.90
29849;DHT22;16728;50.832;5.590;2023-07-28T11:59:04;21.70;99.90
29849;DHT22;16728;50.832;5.590;2023-07-28T12:02:07;21.80;99.90
29849;DHT22;16728;50.832;5.590;2023-07-28T12:05:16;21.80;99.90
29849;DHT22;16728;50.832;5.590;2023-07-28T12:08:37;21.70;99.90
29849;DHT22;16728;50.832;5.590;2023-07-28T12:11:43;21.80;99.90
29849;DHT22;16728;50.832;5.590;2023-07-28T12:14:48;21.80;99.90
29849;DHT22;16728;50.832;5.590;2023-07-28T12:18:16;21.90;99.90
29849;DHT22;16728;50.832;5.590;2023-07-28T12:21:23;22.00;99.90
29849;DHT22;16728;50.832;5.590;2023-07-28T12:24:25;22.00;99.90
29849;DHT22;16728;50.832;5.590;2023-07-28T12:27:27;22.10;99.90
29849;DHT22;16728;50.832;5.590;2023-07-28T12:30:35;22.10;99.90
29849;DHT22;16728;50.832;5.590;2023-07-28T12:33:37;22.20;99.90
29849;DHT22;16728;50.832;5.590;2023-07-28T12:36:40;22.10;99.90
29849;DHT22;16728;50.832;5.590;2023-07-28T12:39:45;22.10;99.90
29849;DHT22;16728;50.832;5.590;2023-07-28T12:42:50;22.10;99.90
29849;DHT22;16728;50.832;5.590;2023-07-28T12:45:55;22.10;99.90
29849;DHT22;16728;50.832;5.590;2023-07-28T12:49:00;22.10;99.90
29849;DHT22;16728;50.832;5.590;2023-07-28T12:52:04;22.10;99.90
29849;DHT22;16728;50.832;5.590;2023-07-28T12:55:12;22.10;99.90
29849;DHT22;16728;50.832;5.590;2023-07-28T12:58:16;22.10;99.90
29849;DHT22;16728;50.832;5.590;2023-07-28T13:01:22;22.10;99.90
29849;DHT22;16728;50.832;5.590;2023-07-28T13:04:24;22.00;99.90
29849;DHT22;16728;50.832;5.590;2023-07-28T13:07:26;21.90;99.90
29849;DHT22;16728;50.832;5.590;2023-07-28T13:10:31;21.80;99.90
29849;DHT22;16728;50.832;5.590;2023-07-28T13:13:35;21.70;99.90
29849;DHT22;16728;50.832;5.590;2023-07-28T13:16:40;21.50;99.90
29849;DHT22;16728;50.832;5.590;2023-07-28T13:19:42;21.30;99.90
29849;DHT22;16728;50.832;5.590;2023-07-28T13:22:44;21.20;99.90
29849;DHT22;16728;50.832;5.590;2023-07-28T13:25:46;21.10;99.90
29849;DHT22;16728;50.832;5.590;2023-07-28T13:28:48;21.00;99.90
29849;DHT22;16728;50.832;5.590;2023-07-28T13:31:50;21.00;99.90
29849;DHT22;16728;50.832;5.590;2023-07-28T13:34:52;21.00;99.90
29849;DHT22;16728;50.832;5.590;2023-07-28T13:37:54;21.00;99.90
29849;DHT22;16728;50.832;5.590;2023-07-28T13:40:56;21.00;99.90
29849;DHT22;16728;50.832;5.590;2023-07-28T13:43:58;21.00;99.90
29849;DHT22;16728;50.832;5.590;2023-07-28T13:47:04;21.10;99.90
29849;DHT22;16728;50.832;5.590;2023-07-28T13:50:07;21.00;99.90
29849;DHT22;16728;50.832;5.590;2023-07-28T13:53:10;21.10;99.90
29849;DHT22;16728;50.832;5.590;2023-07-28T13:56:17;21.20;99.90
29849;DHT22;16728;50.832;5.590;2023-07-28T13:59:22;21.10;99.90
29849;DHT22;16728;50.832;5.590;2023-07-28T14:02:24;21.10;99.90
29849;DHT22;16728;50.832;5.590;2023-07-28T14:05:27;21.20;99.90
29849;DHT22;16728;50.832;5.590;2023-07-28T14:08:29;21.30;99.90
29849;DHT22;16728;50.832;5.590;2023-07-28T14:11:31;21.50;99.90
29849;DHT22;16728;50.832;5.590;2023-07-28T14:14:35;21.60;99.90
29849;DHT22;16728;50.832;5.590;2023-07-28T14:17:37;21.60;99.90
29849;DHT22;16728;50.832;5.590;2023-07-28T14:20:39;21.70;99.90
29849;DHT22;16728;50.832;5.590;2023-07-28T14:23:41;21.70;99.90
29849;DHT22;16728;50.832;5.590;2023-07-28T14:26:43;21.80;99.90
29849;DHT22;16728;50.832;5.590;2023-07-28T14:29:45;21.90;99.90
29849;DHT22;16728;50.832;5.590;2023-07-28T14:32:47;21.90;99.90
29849;DHT22;16728;50.832;5.590;2023-07-28T14:35:49;22.00;99.90
29849;DHT22;16728;50.832;5.590;2023-07-28T14:38:51;22.10;99.90
29849;DHT22;16728;50.832;5.590;2023-07-28T14:41:53;22.10;99.90
29849;DHT22;16728;50.832;5.590;2023-07-28T14:44:55;22.20;99.90
29849;DHT22;16728;50.832;5.590;2023-07-28T14:47:57;22.20;99.90
29849;DHT22;16728;50.832;5.590;2023-07-28T14:50:59;22.30;99.90
29849;DHT22;16728;50.832;5.590;2023-07-28T14:54:01;22.40;99.90
29849;DHT22;16728;50.832;5.590;2023-07-28T14:57:03;22.50;99.90
29849;DHT22;16728;50.832;5.590;2023-07-28T15:00:06;22.60;99.90
29849;DHT22;16728;50.832;5.590;2023-07-28T15:03:08;22.60;99.90
29849;DHT22;16728;50.832;5.590;2023-07-28T15:06:10;22.60;99.90
29849;DHT22;16728;50.832;5.590;2023-07-28T15:09:12;22.60;99.90
29849;DHT22;16728;50.832;5.590;2023-07-28T15:12:14;22.60;99.90
29849;DHT22;16728;50.832;5.590;2023-07-28T15:15:16;22.60;99.90
29849;DHT22;16728;50.832;5.590;2023-07-28T15:18:18;22.60;99.90
29849;DHT22;16728;50.832;5.590;2023-07-28T15:21:21;22.60;99.90
29849;DHT22;16728;50.832;5.590;2023-07-28T15:24:24;22.60;99.90
29849;DHT22;16728;50.832;5.590;2023-07-28T15:27:26;22.60;99.90
29849;DHT22;16728;50.832;5.590;2023-07-28T15:30:28;22.60;99.90
29849;DHT22;16728;50.832;5.590;2023-07-28T15:33:31;22.60;99.90
29849;DHT22;16728;50.832;5.590;2023-07-28T15:36:34;22.60;99.90
29849;DHT22;16728;50.832;5.590;2023-07-28T15:39:35;22.70;99.90
29849;DHT22;16728;50.832;5.590;2023-07-28T15:42:37;22.80;99.90
29849;DHT22;16728;50.832;5.590;2023-07-28T15:45:39;22.80;99.90
29849;DHT22;16728;50.832;5.590;2023-07-28T15:48:41;22.80;99.90
29849;DHT22;16728;50.832;5.590;2023-07-28T15:51:45;22.80;99.90
29849;DHT22;16728;50.832;5.590;2023-07-28T15:54:47;22.80;99.90
29849;DHT22;16728;50.832;5.590;2023-07-28T15:57:49;22.90;99.90
29849;DHT22;16728;50.832;5.590;2023-07-28T16:00:51;22.90;99.90
29849;DHT22;16728;50.832;5.590;2023-07-28T16:03:53;23.00;99.90
29849;DHT22;16728;50.832;5.590;2023-07-28T16:06:55;23.00;99.90
29849;DHT22;16728;50.832;5.590;2023-07-28T16:09:58;23.00;99.90
29849;DHT22;16728;50.832;5.590;2023-07-28T16:12:59;23.00;99.90
29849;DHT22;16728;50.832;5.590;2023-07-28T16:16:02;23.00;99.90
29849;DHT22;16728;50.832;5.590;2023-07-28T16:19:04;23.10;99.90
29849;DHT22;16728;50.832;5.590;2023-07-28T16:22:07;23.10;99.90
29849;DHT22;16728;50.832;5.590;2023-07-28T16:25:10;23.10;99.90
29849;DHT22;16728;50.832;5.590;2023-07-28T16:28:11;23.10;99.90
29849;DHT22;16728;50.832;5.590;2023-07-28T16:31:13;23.10;99.90
29849;DHT22;16728;50.832;5.590;2023-07-28T16:34:15;23.20;99.90
29849;DHT22;16728;50.832;5.590;2023-07-28T16:37:17;23.30;99.90
29849;DHT22;16728;50.832;5.590;2023-07-28T16:40:19;23.30;99.90
29849;DHT22;16728;50.832;5.590;2023-07-28T16:43:21;23.30;99.90
29849;DHT22;16728;50.832;5.590;2023-07-28T16:46:23;23.40;99.90
29849;DHT22;16728;50.832;5.590;2023-07-28T16:49:25;23.40;99.90
29849;DHT22;16728;50.832;5.590;2023-07-28T16:52:28;23.40;99.90
29849;DHT22;16728;50.832;5.590;2023-07-28T16:55:30;23.30;99.90
29849;DHT22;16728;50.832;5.590;2023-07-28T16:58:32;23.30;99.90
29849;DHT22;16728;50.832;5.590;2023-07-28T17:01:34;23.20;99.90
29849;DHT22;16728;50.832;5.590;2023-07-28T17:04:36;23.20;99.90
29849;DHT22;16728;50.832;5.590;2023-07-28T17:07:39;23.10;99.90
29849;DHT22;16728;50.832;5.590;2023-07-28T17:10:41;23.10;99.90
29849;DHT22;16728;50.832;5.590;2023-07-28T17:13:43;23.10;99.90
29849;DHT22;16728;50.832;5.590;2023-07-28T17:16:45;22.90;99.90
29849;DHT22;16728;50.832;5.590;2023-07-28T17:19:48;22.90;99.90
29849;DHT22;16728;50.832;5.590;2023-07-28T17:22:51;22.90;99.90
29849;DHT22;16728;50.832;5.590;2023-07-28T17:25:53;22.80;99.90
29849;DHT22;16728;50.832;5.590;2023-07-28T17:28:55;22.70;99.90
29849;DHT22;16728;50.832;5.590;2023-07-28T17:31:57;22.70;99.90
29849;DHT22;16728;50.832;5.590;2023-07-28T17:34:59;22.70;99.90
29849;DHT22;16728;50.832;5.590;2023-07-28T17:38:01;22.70;99.90
29849;DHT22;16728;50.832;5.590;2023-07-28T17:41:03;22.70;99.90
29849;DHT22;16728;50.832;5.590;2023-07-28T17:44:05;22.60;99.90
29849;DHT22;16728;50.832;5.590;2023-07-28T17:47:07;22.60;99.90
29849;DHT22;16728;50.832;5.590;2023-07-28T17:50:09;22.50;99.90
29849;DHT22;16728;50.832;5.590;2023-07-28T17:53:12;22.50;99.90
29849;DHT22;16728;50.832;5.590;2023-07-28T17:56:14;22.40;99.90
29849;DHT22;16728;50.832;5.590;2023-07-28T17:59:19;22.40;99.90
29849;DHT22;16728;50.832;5.590;2023-07-28T18:02:21;22.40;99.90
29849;DHT22;16728;50.832;5.590;2023-07-28T18:05:23;22.40;99.90
29849;DHT22;16728;50.832;5.590;2023-07-28T18:08:25;22.40;99.90
29849;DHT22;16728;50.832;5.590;2023-07-28T18:11:27;22.50;99.90
29849;DHT22;16728;50.832;5.590;2023-07-28T18:14:29;22.30;99.90
29849;DHT22;16728;50.832;5.590;2023-07-28T18:17:31;22.10;99.90
29849;DHT22;16728;50.832;5.590;2023-07-28T18:20:33;21.90;99.90
29849;DHT22;16728;50.832;5.590;2023-07-28T18:23:38;21.80;99.90
29849;DHT22;16728;50.832;5.590;2023-07-28T18:26:40;21.70;99.90
29849;DHT22;16728;50.832;5.590;2023-07-28T18:29:42;21.50;99.90
29849;DHT22;16728;50.832;5.590;2023-07-28T18:32:44;21.40;99.90
29849;DHT22;16728;50.832;5.590;2023-07-28T18:35:50;21.30;99.90
29849;DHT22;16728;50.832;5.590;2023-07-28T18:38:52;21.30;99.90
29849;DHT22;16728;50.832;5.590;2023-07-28T18:41:54;21.30;99.90
29849;DHT22;16728;50.832;5.590;2023-07-28T18:44:56;21.20;99.90
29849;DHT22;16728;50.832;5.590;2023-07-28T18:47:58;21.20;99.90
29849;DHT22;16728;50.832;5.590;2023-07-28T18:51:00;21.20;99.90
29849;DHT22;16728;50.832;5.590;2023-07-28T18:54:05;21.10;99.90
29849;DHT22;16728;50.832;5.590;2023-07-28T18:57:07;21.10;99.90
29849;DHT22;16728;50.832;5.590;2023-07-28T19:00:09;21.10;99.90
29849;DHT22;16728;50.832;5.590;2023-07-28T19:03:14;21.10;99.90
29849;DHT22;16728;50.832;5.590;2023-07-28T19:06:17;21.00;99.90
29849;DHT22;16728;50.832;5.590;2023-07-28T19:09:21;21.00;99.90
29849;DHT22;16728;50.832;5.590;2023-07-28T19:12:23;21.00;99.90
29849;DHT22;16728;50.832;5.590;2023-07-28T19:15:25;21.00;99.90
29849;DHT22;16728;50.832;5.590;2023-07-28T19:18:47;21.00;99.90
29849;DHT22;16728;50.832;5.590;2023-07-28T19:21:49;20.90;99.90